Bandar Abbas International Airport
OIKB : now visible

Airfield :











YOU CAN JOIN US ON...

 
LOGIN :

Register | Disclaimer

   EN    FR    IT 

 









Legend :    VFR   Marginal VFR   IFR   Intensive IFR   Very Intensive IFR
Visi :
Ceiling :
>= 8 km
>= 3000ft
5 to 8 km
1000 to 3000 ft
1500m to 5 km
500 to 1000 ft
800 to 1500m
200 to 500 ft
< 800m
< 200 ft
Symbols :   Thunderstorms  Fog  Heavy snow  Heavy precipitations  Wind > 20 kt






- Airport Elevation : 22 ft
- IATA code : BND


OIKB - Bandar Abbas International

CURRENT METAR :
  • 211200Z 17008KT 9999 BKN030 23/10 Q1014 A2997

EXPIRED METARs :
  • 211130Z 16008KT 9999 FEW030 24/10 Q1014 A2997
  • 211100Z 10010KT 9999 FEW030 25/09 Q1014 A2997
  • 211030Z 09006KT 9999 FEW030 24/09 Q1014 A2997
  • 211000Z 08010KT 9999 FEW030 24/10 Q1015 A2997 NOSIG
  • 210930Z 09014KT 9999 FEW030 24/10 Q1015 A2999

TAF TAF OIKB
Valid from the 21 at 12:00 until the 22 at 18:00 UTC


211150Z 2112/2218 08008KT 7000 SCT030
TEMPO 2121/2203 5000 BR FEW030CB SCT035 SCT090
TEMPO 2207/2212 10018KT
BECMG 2212/2214 FEW030CB SCT035 BKN090
TEMPO 2214/2218 5000 TSRA



MET'MAP, your aeronautical weather chart ! - Copyright ORBIFLY December 2007 - Disclaimer

ORBIFLY MET'MAP TEAM :

Programming & Development : Alexandra Zaïnal
Concept & original design : Baudouin d'Aumeries
Assistance for programming : Marc-Olivier Méhu
Technical & hardware support : Manuel Goepfert

Contact : metmap@orbifly.com




SOURCES & CREDITS :

   NOAA       Earth
Advisory